Proctor, Minnesota
Current Conditions -  °F | °C
As of 1:55 AM on Saturday 20 Dec 2014 (Local Time) from KDLH Reporting Station
Haze Haze  
Wind Chill: 18°   Ceiling: 500
Heat Index: 25°   Visibility: 4mi
Dew Point: 22°   Wind: 6mph
Humidity: 88%   Direction: 150°SSE
Pressure: 30.11"   Gusts: NA
Location:  46.7582°N, 92.2733°W
Report Text: KDLH 200755Z 15005KT 4SM BR OVC005 M04/M06 A3011 RMK AO2 SLP221 T10391056
Loading
Personal Weather Stations






























Interactive Weather Map New forecast layout! Learn more

10-Day Weather Forecast

Advertisements
Track Severe Weather on mobile